sensor_id;sensor_type;location;lat;lon;timestamp;pressure;altitude;pressure_sealevel;temperature;humidity
70103;BME280;57470;50.034;15.256;2023-04-12T00:00:00;99186.66;;;3.49;94.57
70103;BME280;57470;50.034;15.256;2023-04-12T00:02:25;99185.91;;;3.47;94.62
70103;BME280;57470;50.034;15.256;2023-04-12T00:04:51;99175.31;;;3.49;94.65
70103;BME280;57470;50.034;15.256;2023-04-12T00:07:20;99169.41;;;3.44;94.10
70103;BME280;57470;50.034;15.256;2023-04-12T00:09:46;99169.09;;;3.31;94.39
70103;BME280;57470;50.034;15.256;2023-04-12T00:12:11;99164.09;;;3.25;95.02
70103;BME280;57470;50.034;15.256;2023-04-12T00:14:37;99159.97;;;3.19;94.32
70103;BME280;57470;50.034;15.256;2023-04-12T00:17:02;99157.41;;;3.18;94.29
70103;BME280;57470;50.034;15.256;2023-04-12T00:19:27;99159.13;;;3.19;94.84
70103;BME280;57470;50.034;15.256;2023-04-12T00:21:55;99160.22;;;3.13;95.06
70103;BME280;57470;50.034;15.256;2023-04-12T00:24:20;99166.22;;;3.17;94.26
70103;BME280;57470;50.034;15.256;2023-04-12T00:26:46;99162.47;;;3.02;94.20
70103;BME280;57470;50.034;15.256;2023-04-12T00:29:11;99160.56;;;3.06;94.49
70103;BME280;57470;50.034;15.256;2023-04-12T00:31:37;99162.31;;;3.05;94.53
70103;BME280;57470;50.034;15.256;2023-04-12T00:34:02;99159.91;;;3.00;94.12
70103;BME280;57470;50.034;15.256;2023-04-12T00:36:27;99150.59;;;2.93;95.02
70103;BME280;57470;50.034;15.256;2023-04-12T00:38:53;99142.78;;;2.92;94.77
70103;BME280;57470;50.034;15.256;2023-04-12T00:41:18;99140.78;;;2.97;94.55
70103;BME280;57470;50.034;15.256;2023-04-12T00:43:43;99145.56;;;2.87;94.39
70103;BME280;57470;50.034;15.256;2023-04-12T00:46:09;99156.19;;;2.86;93.92
70103;BME280;57470;50.034;15.256;2023-04-12T00:48:36;99140.34;;;2.67;94.72
70103;BME280;57470;50.034;15.256;2023-04-12T00:51:02;99129.03;;;2.65;95.56
70103;BME280;57470;50.034;15.256;2023-04-12T00:53:29;99135.94;;;2.68;95.71
70103;BME280;57470;50.034;15.256;2023-04-12T00:55:55;99137.19;;;2.59;95.34
70103;BME280;57470;50.034;15.256;2023-04-12T00:58:22;99133.34;;;2.46;95.76
70103;BME280;57470;50.034;15.256;2023-04-12T01:00:48;99124.44;;;2.50;96.56
70103;BME280;57470;50.034;15.256;2023-04-12T01:03:19;99127.06;;;2.50;95.76
70103;BME280;57470;50.034;15.256;2023-04-12T01:08:29;99126.91;;;2.53;95.24
70103;BME280;57470;50.034;15.256;2023-04-12T01:11:18;99125.47;;;2.46;95.00
70103;BME280;57470;50.034;15.256;2023-04-12T01:13:54;99117.91;;;2.38;96.00
70103;BME280;57470;50.034;15.256;2023-04-12T01:16:43;99111.28;;;2.30;95.99
70103;BME280;57470;50.034;15.256;2023-04-12T01:22:35;99109.81;;;2.22;95.81
70103;BME280;57470;50.034;15.256;2023-04-12T01:25:25;99108.69;;;2.28;95.45
70103;BME280;57470;50.034;15.256;2023-04-12T01:27:58;99099.88;;;2.09;96.21
70103;BME280;57470;50.034;15.256;2023-04-12T01:30:27;99095.38;;;2.12;96.43
70103;BME280;57470;50.034;15.256;2023-04-12T01:32:54;99097.19;;;2.10;95.78
70103;BME280;57470;50.034;15.256;2023-04-12T01:35:23;99093.41;;;1.96;95.91
70103;BME280;57470;50.034;15.256;2023-04-12T01:37:51;99090.50;;;2.03;97.01
70103;BME280;57470;50.034;15.256;2023-04-12T01:40:17;99094.94;;;2.01;96.62
70103;BME280;57470;50.034;15.256;2023-04-12T01:42:42;99089.63;;;2.03;96.34
70103;BME280;57470;50.034;15.256;2023-04-12T01:45:08;99086.56;;;1.92;96.73
70103;BME280;57470;50.034;15.256;2023-04-12T01:47:34;99084.41;;;1.58;98.26
70103;BME280;57470;50.034;15.256;2023-04-12T01:50:22;99086.69;;;1.88;97.32
70103;BME280;57470;50.034;15.256;2023-04-12T01:53:02;99083.03;;;1.71;97.64
70103;BME280;57470;50.034;15.256;2023-04-12T01:55:34;99082.31;;;1.67;97.35
70103;BME280;57470;50.034;15.256;2023-04-12T01:58:01;99084.06;;;1.67;97.06
70103;BME280;57470;50.034;15.256;2023-04-12T02:00:27;99080.38;;;1.49;98.81
70103;BME280;57470;50.034;15.256;2023-04-12T02:02:55;99083.38;;;1.62;98.67
70103;BME280;57470;50.034;15.256;2023-04-12T02:05:23;99078.50;;;1.52;98.06
70103;BME280;57470;50.034;15.256;2023-04-12T02:07:49;99069.91;;;1.49;98.42
70103;BME280;57470;50.034;15.256;2023-04-12T02:10:27;99075.97;;;1.73;97.73
70103;BME280;57470;50.034;15.256;2023-04-12T02:13:00;99073.47;;;1.70;97.59
70103;BME280;57470;50.034;15.256;2023-04-12T02:15:29;99077.22;;;1.63;97.30
70103;BME280;57470;50.034;15.256;2023-04-12T02:17:56;99063.22;;;1.64;98.19
70103;BME280;57470;50.034;15.256;2023-04-12T02:20:24;99065.16;;;1.59;97.50
70103;BME280;57470;50.034;15.256;2023-04-12T02:22:52;99067.91;;;1.56;97.81
70103;BME280;57470;50.034;15.256;2023-04-12T02:25:20;99064.41;;;1.55;97.48
70103;BME280;57470;50.034;15.256;2023-04-12T02:27:46;99064.41;;;1.55;97.59
70103;BME280;57470;50.034;15.256;2023-04-12T02:30:14;99061.25;;;1.47;97.93
70103;BME280;57470;50.034;15.256;2023-04-12T02:32:41;99054.75;;;1.57;97.98
70103;BME280;57470;50.034;15.256;2023-04-12T02:35:11;99050.66;;;1.50;97.10
70103;BME280;57470;50.034;15.256;2023-04-12T02:37:44;99051.47;;;1.52;97.66
70103;BME280;57470;50.034;15.256;2023-04-12T02:40:14;99043.75;;;1.47;97.68
70103;BME280;57470;50.034;15.256;2023-04-12T02:42:42;99046.28;;;1.50;97.27
70103;BME280;57470;50.034;15.256;2023-04-12T02:45:10;99043.19;;;1.39;97.57
70103;BME280;57470;50.034;15.256;2023-04-12T02:47:37;99045.72;;;1.42;98.31
70103;BME280;57470;50.034;15.256;2023-04-12T02:50:06;99039.72;;;1.39;97.73
70103;BME280;57470;50.034;15.256;2023-04-12T02:52:33;99041.38;;;1.41;98.42
70103;BME280;57470;50.034;15.256;2023-04-12T02:54:59;99037.16;;;1.37;99.09
70103;BME280;57470;50.034;15.256;2023-04-12T02:57:25;99035.06;;;1.24;99.05
70103;BME280;57470;50.034;15.256;2023-04-12T02:59:51;99033.53;;;1.41;98.44
70103;BME280;57470;50.034;15.256;2023-04-12T03:02:20;99034.59;;;1.36;97.51
70103;BME280;57470;50.034;15.256;2023-04-12T03:04:47;99033.97;;;1.29;97.81
70103;BME280;57470;50.034;15.256;2023-04-12T03:07:20;99028.00;;;1.26;97.37
70103;BME280;57470;50.034;15.256;2023-04-12T03:09:46;99031.56;;;1.25;98.02
70103;BME280;57470;50.034;15.256;2023-04-12T03:12:14;99032.50;;;1.22;97.91
70103;BME280;57470;50.034;15.256;2023-04-12T03:14:40;99034.66;;;1.11;98.67
70103;BME280;57470;50.034;15.256;2023-04-12T03:17:06;99034.16;;;1.25;97.69
70103;BME280;57470;50.034;15.256;2023-04-12T03:19:31;99034.53;;;1.16;97.67
70103;BME280;57470;50.034;15.256;2023-04-12T03:21:59;99023.09;;;1.17;96.83
70103;BME280;57470;50.034;15.256;2023-04-12T03:24:24;99030.13;;;1.16;97.32
70103;BME280;57470;50.034;15.256;2023-04-12T03:26:50;99020.44;;;1.18;96.97
70103;BME280;57470;50.034;15.256;2023-04-12T03:29:16;99032.84;;;1.13;96.49
70103;BME280;57470;50.034;15.256;2023-04-12T03:31:42;99042.44;;;1.14;96.69
70103;BME280;57470;50.034;15.256;2023-04-12T03:34:08;99032.28;;;1.05;97.31
70103;BME280;57470;50.034;15.256;2023-04-12T03:36:33;99030.47;;;1.07;97.76
70103;BME280;57470;50.034;15.256;2023-04-12T03:38:59;99027.84;;;1.07;97.72
70103;BME280;57470;50.034;15.256;2023-04-12T03:41:24;99017.72;;;0.98;97.57
70103;BME280;57470;50.034;15.256;2023-04-12T03:43:50;99023.53;;;1.06;97.09
70103;BME280;57470;50.034;15.256;2023-04-12T03:46:16;99019.50;;;0.97;96.70
70103;BME280;57470;50.034;15.256;2023-04-12T03:48:42;99016.78;;;0.99;96.64
70103;BME280;57470;50.034;15.256;2023-04-12T03:51:08;99009.88;;;0.98;96.94
70103;BME280;57470;50.034;15.256;2023-04-12T03:53:37;99007.25;;;0.98;97.04
70103;BME280;57470;50.034;15.256;2023-04-12T03:56:02;99004.16;;;0.87;96.83
70103;BME280;57470;50.034;15.256;2023-04-12T03:58:28;99006.66;;;0.90;97.18
70103;BME280;57470;50.034;15.256;2023-04-12T04:00:53;98999.13;;;0.81;97.09
70103;BME280;57470;50.034;15.256;2023-04-12T04:03:19;99001.03;;;0.77;96.74
70103;BME280;57470;50.034;15.256;2023-04-12T04:05:46;99001.84;;;0.79;97.15
70103;BME280;57470;50.034;15.256;2023-04-12T04:08:12;99001.03;;;0.77;96.57
70103;BME280;57470;50.034;15.256;2023-04-12T04:10:38;99014.13;;;0.77;96.71
70103;BME280;57470;50.034;15.256;2023-04-12T04:13:03;99012.97;;;0.84;96.29
70103;BME280;57470;50.034;15.256;2023-04-12T04:15:28;99006.22;;;0.79;96.55
70103;BME280;57470;50.034;15.256;2023-04-12T04:17:54;99003.66;;;0.77;96.72
70103;BME280;57470;50.034;15.256;2023-04-12T04:20:19;99001.72;;;0.82;96.50
70103;BME280;57470;50.034;15.256;2023-04-12T04:22:45;99002.19;;;0.70;96.84
70103;BME280;57470;50.034;15.256;2023-04-12T04:25:13;99005.50;;;0.73;96.88
70103;BME280;57470;50.034;15.256;2023-04-12T04:27:41;98999.75;;;0.64;97.00
70103;BME280;57470;50.034;15.256;2023-04-12T04:30:09;98999.66;;;0.67;97.91
70103;BME280;57470;50.034;15.256;2023-04-12T04:32:36;99004.50;;;0.78;96.68
70103;BME280;57470;50.034;15.256;2023-04-12T04:35:02;99002.81;;;0.77;97.12
70103;BME280;57470;50.034;15.256;2023-04-12T04:37:28;99013.16;;;0.80;97.39
70103;BME280;57470;50.034;15.256;2023-04-12T04:39:56;99012.38;;;0.78;97.54
70103;BME280;57470;50.034;15.256;2023-04-12T04:42:24;99013.88;;;0.83;97.96
70103;BME280;57470;50.034;15.256;2023-04-12T04:44:49;99011.22;;;0.85;98.01
70103;BME280;57470;50.034;15.256;2023-04-12T04:47:15;99014.66;;;0.87;97.81
70103;BME280;57470;50.034;15.256;2023-04-12T04:49:42;99017.94;;;0.92;97.62
70103;BME280;57470;50.034;15.256;2023-04-12T04:52:07;99009.41;;;0.87;97.74
70103;BME280;57470;50.034;15.256;2023-04-12T04:54:34;99008.31;;;0.92;98.27
70103;BME280;57470;50.034;15.256;2023-04-12T04:57:00;99012.13;;;0.84;98.63
70103;BME280;57470;50.034;15.256;2023-04-12T04:59:26;99005.38;;;0.78;99.39
70103;BME280;57470;50.034;15.256;2023-04-12T05:01:51;99005.69;;;0.92;99.43
70103;BME280;57470;50.034;15.256;2023-04-12T05:04:17;99003.53;;;1.03;99.03
70103;BME280;57470;50.034;15.256;2023-04-12T05:06:42;99001.03;;;1.00;99.71
70103;BME280;57470;50.034;15.256;2023-04-12T05:09:07;99000.53;;;1.14;100.00
70103;BME280;57470;50.034;15.256;2023-04-12T05:11:33;99003.84;;;1.18;100.00
70103;BME280;57470;50.034;15.256;2023-04-12T05:13:59;99000.97;;;1.25;100.00
70103;BME280;57470;50.034;15.256;2023-04-12T05:16:24;98995.25;;;1.37;100.00
70103;BME280;57470;50.034;15.256;2023-04-12T05:18:50;98998.31;;;1.48;100.00
70103;BME280;57470;50.034;15.256;2023-04-12T05:21:15;99004.88;;;1.59;100.00
70103;BME280;57470;50.034;15.256;2023-04-12T05:23:43;99003.09;;;1.81;100.00
70103;BME280;57470;50.034;15.256;2023-04-12T05:26:09;98996.09;;;1.81;100.00
70103;BME280;57470;50.034;15.256;2023-04-12T05:28:35;99006.34;;;1.66;100.00
70103;BME280;57470;50.034;15.256;2023-04-12T05:31:00;99002.34;;;1.79;100.00
70103;BME280;57470;50.034;15.256;2023-04-12T05:33:26;98995.91;;;1.86;100.00
70103;BME280;57470;50.034;15.256;2023-04-12T05:35:51;98997.03;;;1.59;100.00
70103;BME280;57470;50.034;15.256;2023-04-12T05:38:16;98998.44;;;1.67;100.00
70103;BME280;57470;50.034;15.256;2023-04-12T05:40:42;98998.84;;;1.78;100.00
70103;BME280;57470;50.034;15.256;2023-04-12T05:43:10;98997.75;;;1.84;100.00
70103;BME280;57470;50.034;15.256;2023-04-12T05:45:37;98998.16;;;1.95;100.00
70103;BME280;57470;50.034;15.256;2023-04-12T05:48:03;98999.09;;;2.14;100.00
70103;BME280;57470;50.034;15.256;2023-04-12T05:50:29;98990.66;;;2.06;100.00
70103;BME280;57470;50.034;15.256;2023-04-12T05:52:54;98986.56;;;2.21;100.00
70103;BME280;57470;50.034;15.256;2023-04-12T05:55:20;98987.09;;;2.29;100.00
70103;BME280;57470;50.034;15.256;2023-04-12T05:57:46;98983.09;;;2.20;100.00
70103;BME280;57470;50.034;15.256;2023-04-12T06:00:12;98980.06;;;2.50;100.00
70103;BME280;57470;50.034;15.256;2023-04-12T06:02:40;98988.41;;;2.39;100.00
70103;BME280;57470;50.034;15.256;2023-04-12T06:05:06;98981.16;;;2.64;100.00
70103;BME280;57470;50.034;15.256;2023-04-12T06:07:32;98987.81;;;3.11;100.00
70103;BME280;57470;50.034;15.256;2023-04-12T06:09:58;98979.13;;;2.90;100.00
70103;BME280;57470;50.034;15.256;2023-04-12T06:12:23;98971.19;;;3.29;100.00
70103;BME280;57470;50.034;15.256;2023-04-12T06:14:49;98981.94;;;3.60;100.00
70103;BME280;57470;50.034;15.256;2023-04-12T06:17:14;98969.00;;;3.92;100.00
70103;BME280;57470;50.034;15.256;2023-04-12T06:19:39;98971.19;;;4.18;100.00
70103;BME280;57470;50.034;15.256;2023-04-12T06:22:05;98962.81;;;4.27;99.30
70103;BME280;57470;50.034;15.256;2023-04-12T06:24:30;98958.44;;;4.61;97.75
70103;BME280;57470;50.034;15.256;2023-04-12T06:26:56;98951.75;;;4.38;96.38
70103;BME280;57470;50.034;15.256;2023-04-12T06:29:21;98957.84;;;4.88;96.31
70103;BME280;57470;50.034;15.256;2023-04-12T06:31:47;98947.16;;;5.07;97.12
70103;BME280;57470;50.034;15.256;2023-04-12T06:34:12;98940.09;;;4.92;94.88
70103;BME280;57470;50.034;15.256;2023-04-12T06:36:37;98942.97;;;5.50;95.63
70103;BME280;57470;50.034;15.256;2023-04-12T06:39:05;98931.88;;;5.75;94.54
70103;BME280;57470;50.034;15.256;2023-04-12T06:41:31;98932.25;;;6.29;94.33
70103;BME280;57470;50.034;15.256;2023-04-12T06:43:57;98930.25;;;5.73;90.83
70103;BME280;57470;50.034;15.256;2023-04-12T06:46:26;98929.97;;;5.93;93.24
70103;BME280;57470;50.034;15.256;2023-04-12T06:48:52;98921.81;;;6.42;91.04
70103;BME280;57470;50.034;15.256;2023-04-12T06:51:17;98926.03;;;7.01;91.01
70103;BME280;57470;50.034;15.256;2023-04-12T06:53:43;98913.78;;;6.71;90.04
70103;BME280;57470;50.034;15.256;2023-04-12T06:56:08;98915.75;;;7.10;92.12
70103;BME280;57470;50.034;15.256;2023-04-12T06:58:33;98904.94;;;7.54;89.06
70103;BME280;57470;50.034;15.256;2023-04-12T07:01:06;98897.13;;;8.05;90.06
70103;BME280;57470;50.034;15.256;2023-04-12T07:03:32;98910.00;;;8.24;86.78
70103;BME280;57470;50.034;15.256;2023-04-12T07:05:58;98898.44;;;7.73;84.02
70103;BME280;57470;50.034;15.256;2023-04-12T07:08:34;98900.69;;;8.69;86.98
70103;BME280;57470;50.034;15.256;2023-04-12T07:11:00;98892.19;;;8.89;85.11
70103;BME280;57470;50.034;15.256;2023-04-12T07:13:25;98891.16;;;8.79;84.93
70103;BME280;57470;50.034;15.256;2023-04-12T07:15:51;98892.28;;;9.37;84.16
70103;BME280;57470;50.034;15.256;2023-04-12T07:18:17;98887.38;;;9.44;84.99
70103;BME280;57470;50.034;15.256;2023-04-12T07:20:42;98878.84;;;9.27;82.54
70103;BME280;57470;50.034;15.256;2023-04-12T07:23:08;98873.72;;;9.96;82.95
70103;BME280;57470;50.034;15.256;2023-04-12T07:25:36;98877.94;;;9.39;80.82
70103;BME280;57470;50.034;15.256;2023-04-12T07:28:03;98864.41;;;10.25;81.59
70103;BME280;57470;50.034;15.256;2023-04-12T07:30:28;98861.44;;;10.52;79.85
70103;BME280;57470;50.034;15.256;2023-04-12T07:32:54;98854.53;;;10.38;79.48
70103;BME280;57470;50.034;15.256;2023-04-12T07:35:19;98853.56;;;10.28;78.22
70103;BME280;57470;50.034;15.256;2023-04-12T07:37:45;98865.38;;;9.30;81.28
70103;BME280;57470;50.034;15.256;2023-04-12T07:40:10;98864.94;;;9.71;82.01
70103;BME280;57470;50.034;15.256;2023-04-12T07:42:36;98851.25;;;9.89;79.06
70103;BME280;57470;50.034;15.256;2023-04-12T07:45:01;98850.19;;;10.26;79.92
70103;BME280;57470;50.034;15.256;2023-04-12T07:47:26;98852.28;;;10.10;77.58
70103;BME280;57470;50.034;15.256;2023-04-12T07:49:52;98845.84;;;10.36;77.17
70103;BME280;57470;50.034;15.256;2023-04-12T07:52:17;98830.38;;;10.52;76.36
70103;BME280;57470;50.034;15.256;2023-04-12T07:54:43;98830.63;;;10.61;77.46
70103;BME280;57470;50.034;15.256;2023-04-12T07:57:08;98830.88;;;10.11;78.69
70103;BME280;57470;50.034;15.256;2023-04-12T07:59:34;98827.97;;;10.61;78.81
70103;BME280;57470;50.034;15.256;2023-04-12T08:01:59;98819.59;;;10.87;74.11
70103;BME280;57470;50.034;15.256;2023-04-12T08:04:25;98824.41;;;10.94;75.36
70103;BME280;57470;50.034;15.256;2023-04-12T08:06:52;98816.09;;;10.87;73.27
70103;BME280;57470;50.034;15.256;2023-04-12T08:09:18;98816.91;;;10.09;74.01
70103;BME280;57470;50.034;15.256;2023-04-12T08:11:43;98813.94;;;10.25;75.62
70103;BME280;57470;50.034;15.256;2023-04-12T08:14:09;98809.81;;;10.99;77.48
70103;BME280;57470;50.034;15.256;2023-04-12T08:16:34;98807.78;;;10.69;75.61
70103;BME280;57470;50.034;15.256;2023-04-12T08:19:00;98801.41;;;11.15;75.42
70103;BME280;57470;50.034;15.256;2023-04-12T08:21:25;98799.72;;;11.03;76.17
70103;BME280;57470;50.034;15.256;2023-04-12T08:23:52;98804.66;;;11.18;76.03
70103;BME280;57470;50.034;15.256;2023-04-12T08:26:17;98794.78;;;11.09;72.43
70103;BME280;57470;50.034;15.256;2023-04-12T08:28:43;98788.69;;;11.50;72.91
70103;BME280;57470;50.034;15.256;2023-04-12T08:31:08;98803.47;;;11.11;72.67
70103;BME280;57470;50.034;15.256;2023-04-12T08:33:34;98799.88;;;11.65;73.70
70103;BME280;57470;50.034;15.256;2023-04-12T08:35:59;98795.84;;;11.50;72.97
70103;BME280;57470;50.034;15.256;2023-04-12T08:38:25;98796.88;;;10.83;75.37
70103;BME280;57470;50.034;15.256;2023-04-12T08:40:51;98788.78;;;11.60;73.39
70103;BME280;57470;50.034;15.256;2023-04-12T08:43:17;98776.09;;;11.52;74.15
70103;BME280;57470;50.034;15.256;2023-04-12T08:45:43;98778.84;;;11.62;72.59
70103;BME280;57470;50.034;15.256;2023-04-12T08:48:09;98772.53;;;11.42;72.12
70103;BME280;57470;50.034;15.256;2023-04-12T08:50:35;98762.28;;;11.58;72.54
70103;BME280;57470;50.034;15.256;2023-04-12T08:53:01;98768.00;;;11.54;73.85
70103;BME280;57470;50.034;15.256;2023-04-12T08:55:27;98759.16;;;11.53;72.67
70103;BME280;57470;50.034;15.256;2023-04-12T08:57:54;98744.22;;;11.09;72.22
70103;BME280;57470;50.034;15.256;2023-04-12T09:00:23;98744.91;;;11.64;73.04
70103;BME280;57470;50.034;15.256;2023-04-12T09:02:48;98732.47;;;11.01;71.12
70103;BME280;57470;50.034;15.256;2023-04-12T09:05:14;98730.19;;;11.28;72.51
70103;BME280;57470;50.034;15.256;2023-04-12T09:07:40;98730.13;;;11.71;72.13
70103;BME280;57470;50.034;15.256;2023-04-12T09:10:07;98726.50;;;11.93;72.09
70103;BME280;57470;50.034;15.256;2023-04-12T09:12:32;98728.41;;;12.12;70.38
70103;BME280;57470;50.034;15.256;2023-04-12T09:15:09;98729.97;;;12.14;71.15
70103;BME280;57470;50.034;15.256;2023-04-12T09:17:37;98720.88;;;12.17;72.01
70103;BME280;57470;50.034;15.256;2023-04-12T09:20:20;98714.19;;;12.01;72.49
70103;BME280;57470;50.034;15.256;2023-04-12T09:22:47;98715.41;;;11.56;69.56
70103;BME280;57470;50.034;15.256;2023-04-12T09:25:14;98700.28;;;12.28;70.29
70103;BME280;57470;50.034;15.256;2023-04-12T09:27:51;98699.59;;;11.96;69.38
70103;BME280;57470;50.034;15.256;2023-04-12T09:30:18;98697.56;;;12.19;68.10
70103;BME280;57470;50.034;15.256;2023-04-12T09:32:44;98688.28;;;11.83;66.68
70103;BME280;57470;50.034;15.256;2023-04-12T09:35:09;98682.97;;;11.83;67.97
70103;BME280;57470;50.034;15.256;2023-04-12T09:37:35;98680.97;;;12.06;67.13
70103;BME280;57470;50.034;15.256;2023-04-12T09:40:03;98676.84;;;11.71;65.45
70103;BME280;57470;50.034;15.256;2023-04-12T09:42:30;98658.22;;;12.42;63.74
70103;BME280;57470;50.034;15.256;2023-04-12T09:44:56;98645.25;;;12.77;66.31
70103;BME280;57470;50.034;15.256;2023-04-12T09:47:40;98652.81;;;12.82;66.79
70103;BME280;57470;50.034;15.256;2023-04-12T09:50:07;98647.44;;;12.53;62.92
70103;BME280;57470;50.034;15.256;2023-04-12T09:52:37;98636.78;;;12.62;66.08
70103;BME280;57470;50.034;15.256;2023-04-12T09:55:09;98643.28;;;13.27;67.01
70103;BME280;57470;50.034;15.256;2023-04-12T09:57:40;98631.72;;;13.56;65.45
70103;BME280;57470;50.034;15.256;2023-04-12T10:00:07;98630.22;;;12.86;62.33
70103;BME280;57470;50.034;15.256;2023-04-12T10:02:40;98622.47;;;13.02;61.64
70103;BME280;57470;50.034;15.256;2023-04-12T10:05:06;98620.66;;;12.83;63.79
70103;BME280;57470;50.034;15.256;2023-04-12T10:07:35;98618.25;;;13.47;63.76
70103;BME280;57470;50.034;15.256;2023-04-12T10:10:01;98616.81;;;13.43;62.17
70103;BME280;57470;50.034;15.256;2023-04-12T10:12:28;98610.03;;;13.68;61.89
70103;BME280;57470;50.034;15.256;2023-04-12T10:14:55;98618.25;;;13.47;61.32
70103;BME280;57470;50.034;15.256;2023-04-12T10:17:22;98617.59;;;13.73;61.25
70103;BME280;57470;50.034;15.256;2023-04-12T10:19:51;98608.59;;;14.11;60.55
70103;BME280;57470;50.034;15.256;2023-04-12T10:22:16;98612.09;;;14.11;59.54
70103;BME280;57470;50.034;15.256;2023-04-12T10:24:43;98605.22;;;14.09;59.56
70103;BME280;57470;50.034;15.256;2023-04-12T10:27:09;98599.81;;;14.18;59.69
70103;BME280;57470;50.034;15.256;2023-04-12T10:29:36;98590.97;;;14.45;60.98
70103;BME280;57470;50.034;15.256;2023-04-12T10:32:20;98588.75;;;14.13;59.07
70103;BME280;57470;50.034;15.256;2023-04-12T10:34:51;98588.72;;;14.41;57.16
70103;BME280;57470;50.034;15.256;2023-04-12T10:37:16;98584.41;;;14.30;55.57
70103;BME280;57470;50.034;15.256;2023-04-12T10:39:43;98578.81;;;14.86;60.54
70103;BME280;57470;50.034;15.256;2023-04-12T10:44:50;98572.22;;;14.18;57.63
70103;BME280;57470;50.034;15.256;2023-04-12T10:50:30;98559.72;;;15.07;53.95
70103;BME280;57470;50.034;15.256;2023-04-12T10:55:40;98557.19;;;14.35;54.16
70103;BME280;57470;50.034;15.256;2023-04-12T10:58:10;98547.03;;;14.20;52.05
70103;BME280;57470;50.034;15.256;2023-04-12T11:03:19;98532.81;;;14.38;53.35
70103;BME280;57470;50.034;15.256;2023-04-12T11:06:04;98536.75;;;14.61;53.09
70103;BME280;57470;50.034;15.256;2023-04-12T11:08:31;98523.28;;;14.88;52.16
70103;BME280;57470;50.034;15.256;2023-04-12T11:11:03;98511.00;;;15.03;51.11
70103;BME280;57470;50.034;15.256;2023-04-12T11:13:37;98514.56;;;14.51;52.79
70103;BME280;57470;50.034;15.256;2023-04-12T11:16:04;98509.28;;;14.59;53.92
70103;BME280;57470;50.034;15.256;2023-04-12T11:18:32;98493.41;;;15.27;51.78
70103;BME280;57470;50.034;15.256;2023-04-12T11:20:58;98494.44;;;15.60;52.29
70103;BME280;57470;50.034;15.256;2023-04-12T11:23:24;98485.25;;;16.12;51.17
70103;BME280;57470;50.034;15.256;2023-04-12T11:25:50;98477.84;;;16.06;51.69
70103;BME280;57470;50.034;15.256;2023-04-12T11:28:18;98473.63;;;15.20;52.34
70103;BME280;57470;50.034;15.256;2023-04-12T11:30:57;98476.41;;;14.84;51.29
70103;BME280;57470;50.034;15.256;2023-04-12T11:33:32;98465.31;;;15.57;53.63
70103;BME280;57470;50.034;15.256;2023-04-12T11:35:57;98469.84;;;15.64;49.45
70103;BME280;57470;50.034;15.256;2023-04-12T11:38:23;98476.19;;;14.60;49.79
70103;BME280;57470;50.034;15.256;2023-04-12T11:40:48;98458.44;;;15.28;51.97
70103;BME280;57470;50.034;15.256;2023-04-12T11:43:20;98454.41;;;16.08;54.20
70103;BME280;57470;50.034;15.256;2023-04-12T11:45:46;98455.66;;;14.86;49.14
70103;BME280;57470;50.034;15.256;2023-04-12T11:48:11;98458.31;;;14.86;49.53
70103;BME280;57470;50.034;15.256;2023-04-12T11:50:37;98447.56;;;15.30;52.42
70103;BME280;57470;50.034;15.256;2023-04-12T11:53:11;98442.75;;;15.08;51.34
70103;BME280;57470;50.034;15.256;2023-04-12T11:55:37;98440.91;;;15.42;52.51
70103;BME280;57470;50.034;15.256;2023-04-12T11:58:02;98436.13;;;15.20;51.48
70103;BME280;57470;50.034;15.256;2023-04-12T12:00:27;98438.72;;;15.80;52.31
70103;BME280;57470;50.034;15.256;2023-04-12T12:02:55;98439.34;;;16.40;51.77
70103;BME280;57470;50.034;15.256;2023-04-12T12:05:21;98431.28;;;16.24;51.17
70103;BME280;57470;50.034;15.256;2023-04-12T12:07:47;98425.75;;;16.98;51.77
70103;BME280;57470;50.034;15.256;2023-04-12T12:10:13;98421.13;;;15.77;48.84
70103;BME280;57470;50.034;15.256;2023-04-12T12:12:42;98412.78;;;15.88;50.98
70103;BME280;57470;50.034;15.256;2023-04-12T12:15:08;98403.75;;;15.97;48.87
70103;BME280;57470;50.034;15.256;2023-04-12T12:17:36;98404.84;;;15.62;48.25
70103;BME280;57470;50.034;15.256;2023-04-12T12:20:03;98406.28;;;16.23;49.81
70103;BME280;57470;50.034;15.256;2023-04-12T12:22:29;98399.94;;;15.58;50.66
70103;BME280;57470;50.034;15.256;2023-04-12T12:24:56;98395.22;;;16.59;52.58
70103;BME280;57470;50.034;15.256;2023-04-12T12:27:36;98388.84;;;16.51;51.13
70103;BME280;57470;50.034;15.256;2023-04-12T12:30:02;98381.72;;;17.07;51.12
70103;BME280;57470;50.034;15.256;2023-04-12T12:32:36;98382.59;;;17.00;52.18
70103;BME280;57470;50.034;15.256;2023-04-12T12:35:10;98379.13;;;17.69;47.43
70103;BME280;57470;50.034;15.256;2023-04-12T12:37:35;98373.69;;;17.77;48.00
70103;BME280;57470;50.034;15.256;2023-04-12T12:40:06;98364.72;;;17.62;47.20
70103;BME280;57470;50.034;15.256;2023-04-12T12:43:01;98365.47;;;17.40;51.06
70103;BME280;57470;50.034;15.256;2023-04-12T12:45:28;98345.13;;;17.06;45.42
70103;BME280;57470;50.034;15.256;2023-04-12T12:48:01;98354.47;;;16.31;49.74
70103;BME280;57470;50.034;15.256;2023-04-12T12:50:32;98349.09;;;17.18;48.40
70103;BME280;57470;50.034;15.256;2023-04-12T12:52:58;98329.44;;;17.18;52.19
70103;BME280;57470;50.034;15.256;2023-04-12T12:55:27;98344.34;;;17.29;49.45
70103;BME280;57470;50.034;15.256;2023-04-12T12:57:55;98331.66;;;16.35;46.82
70103;BME280;57470;50.034;15.256;2023-04-12T13:00:25;98328.81;;;16.28;46.99
70103;BME280;57470;50.034;15.256;2023-04-12T13:02:51;98322.44;;;16.21;47.88
70103;BME280;57470;50.034;15.256;2023-04-12T13:05:18;98322.09;;;16.40;49.92
70103;BME280;57470;50.034;15.256;2023-04-12T13:07:44;98319.66;;;16.86;50.58
70103;BME280;57470;50.034;15.256;2023-04-12T13:10:09;98317.34;;;17.53;47.77
70103;BME280;57470;50.034;15.256;2023-04-12T13:12:35;98313.09;;;17.36;49.27